sensor_id;sensor_type;location;lat;lon;timestamp;temperature;humidity
24645;DHT22;12780;45.502;9.146;2022-10-30T00:01:24;16.60;99.90
24645;DHT22;12780;45.502;9.146;2022-10-30T00:03:49;16.70;99.90
24645;DHT22;12780;45.502;9.146;2022-10-30T00:06:15;16.50;99.90
24645;DHT22;12780;45.502;9.146;2022-10-30T00:08:40;16.60;99.90
24645;DHT22;12780;45.502;9.146;2022-10-30T00:11:08;16.60;99.90
24645;DHT22;12780;45.502;9.146;2022-10-30T00:13:34;16.60;99.90
24645;DHT22;12780;45.502;9.146;2022-10-30T00:16:03;16.50;99.90
24645;DHT22;12780;45.502;9.146;2022-10-30T00:18:29;16.50;99.90
24645;DHT22;12780;45.502;9.146;2022-10-30T00:20:55;16.50;99.90
24645;DHT22;12780;45.502;9.146;2022-10-30T00:23:20;16.50;99.90
24645;DHT22;12780;45.502;9.146;2022-10-30T00:25:46;16.40;99.90
24645;DHT22;12780;45.502;9.146;2022-10-30T00:28:11;16.40;99.90
24645;DHT22;12780;45.502;9.146;2022-10-30T00:30:37;16.50;99.90
24645;DHT22;12780;45.502;9.146;2022-10-30T00:33:03;16.50;99.90
24645;DHT22;12780;45.502;9.146;2022-10-30T00:35:29;16.40;99.90
24645;DHT22;12780;45.502;9.146;2022-10-30T00:37:55;16.40;99.90
24645;DHT22;12780;45.502;9.146;2022-10-30T00:40:21;16.40;99.90
24645;DHT22;12780;45.502;9.146;2022-10-30T00:42:46;16.60;99.90
24645;DHT22;12780;45.502;9.146;2022-10-30T00:45:14;16.40;99.90
24645;DHT22;12780;45.502;9.146;2022-10-30T00:47:47;16.40;99.90
24645;DHT22;12780;45.502;9.146;2022-10-30T00:53:01;16.30;99.90
24645;DHT22;12780;45.502;9.146;2022-10-30T00:55:32;16.20;99.90
24645;DHT22;12780;45.502;9.146;2022-10-30T00:58:00;16.40;99.90
24645;DHT22;12780;45.502;9.146;2022-10-30T01:00:28;16.30;99.90
24645;DHT22;12780;45.502;9.146;2022-10-30T01:02:55;16.20;99.90
24645;DHT22;12780;45.502;9.146;2022-10-30T01:05:23;16.30;99.90
24645;DHT22;12780;45.502;9.146;2022-10-30T01:07:49;16.30;99.90
24645;DHT22;12780;45.502;9.146;2022-10-30T01:10:15;16.30;99.90
24645;DHT22;12780;45.502;9.146;2022-10-30T01:12:42;16.20;99.90
24645;DHT22;12780;45.502;9.146;2022-10-30T01:15:08;16.20;99.90
24645;DHT22;12780;45.502;9.146;2022-10-30T01:18:05;16.20;99.90
24645;DHT22;12780;45.502;9.146;2022-10-30T01:20:46;16.20;99.90
24645;DHT22;12780;45.502;9.146;2022-10-30T01:37:27;16.10;99.90
24645;DHT22;12780;45.502;9.146;2022-10-30T01:39:54;16.10;99.90
24645;DHT22;12780;45.502;9.146;2022-10-30T01:45:07;16.10;99.90
24645;DHT22;12780;45.502;9.146;2022-10-30T01:50:35;16.00;99.90
24645;DHT22;12780;45.502;9.146;2022-10-30T01:56:04;16.10;99.90
24645;DHT22;12780;45.502;9.146;2022-10-30T01:58:49;16.00;99.90
24645;DHT22;12780;45.502;9.146;2022-10-30T02:01:18;16.00;99.90
24645;DHT22;12780;45.502;9.146;2022-10-30T02:03:45;16.00;99.90
24645;DHT22;12780;45.502;9.146;2022-10-30T02:06:10;15.80;99.90
24645;DHT22;12780;45.502;9.146;2022-10-30T02:08:36;16.00;99.90
24645;DHT22;12780;45.502;9.146;2022-10-30T02:11:02;16.00;99.90
24645;DHT22;12780;45.502;9.146;2022-10-30T02:13:28;15.90;99.90
24645;DHT22;12780;45.502;9.146;2022-10-30T02:15:54;16.00;99.90
24645;DHT22;12780;45.502;9.146;2022-10-30T02:18:20;15.80;99.90
24645;DHT22;12780;45.502;9.146;2022-10-30T02:20:46;15.90;99.90
24645;DHT22;12780;45.502;9.146;2022-10-30T02:23:12;15.80;99.90
24645;DHT22;12780;45.502;9.146;2022-10-30T02:25:43;15.80;99.90
24645;DHT22;12780;45.502;9.146;2022-10-30T02:28:09;15.80;99.90
24645;DHT22;12780;45.502;9.146;2022-10-30T02:30:34;15.90;99.90
24645;DHT22;12780;45.502;9.146;2022-10-30T02:33:00;15.80;99.90
24645;DHT22;12780;45.502;9.146;2022-10-30T02:35:26;15.80;99.90
24645;DHT22;12780;45.502;9.146;2022-10-30T02:37:51;15.80;99.90
24645;DHT22;12780;45.502;9.146;2022-10-30T02:40:17;15.70;99.90
24645;DHT22;12780;45.502;9.146;2022-10-30T02:42:42;15.80;99.90
24645;DHT22;12780;45.502;9.146;2022-10-30T02:45:08;15.80;99.90
24645;DHT22;12780;45.502;9.146;2022-10-30T02:47:34;15.80;99.90
24645;DHT22;12780;45.502;9.146;2022-10-30T02:50:00;15.80;99.90
24645;DHT22;12780;45.502;9.146;2022-10-30T02:52:25;15.80;99.90
24645;DHT22;12780;45.502;9.146;2022-10-30T02:54:51;15.80;99.90
24645;DHT22;12780;45.502;9.146;2022-10-30T02:57:16;15.80;99.90
24645;DHT22;12780;45.502;9.146;2022-10-30T02:59:42;15.80;99.90
24645;DHT22;12780;45.502;9.146;2022-10-30T03:02:07;15.70;99.90
24645;DHT22;12780;45.502;9.146;2022-10-30T03:04:33;15.80;99.90
24645;DHT22;12780;45.502;9.146;2022-10-30T03:06:58;15.70;99.90
24645;DHT22;12780;45.502;9.146;2022-10-30T03:09:24;15.70;99.90
24645;DHT22;12780;45.502;9.146;2022-10-30T03:11:50;15.80;99.90
24645;DHT22;12780;45.502;9.146;2022-10-30T03:14:15;15.50;99.90
24645;DHT22;12780;45.502;9.146;2022-10-30T03:16:41;15.60;99.90
24645;DHT22;12780;45.502;9.146;2022-10-30T03:19:06;15.60;99.90
24645;DHT22;12780;45.502;9.146;2022-10-30T03:21:32;15.70;99.90
24645;DHT22;12780;45.502;9.146;2022-10-30T03:23:58;15.70;99.90
24645;DHT22;12780;45.502;9.146;2022-10-30T03:26:23;15.60;99.90
24645;DHT22;12780;45.502;9.146;2022-10-30T03:28:49;15.60;99.90
24645;DHT22;12780;45.502;9.146;2022-10-30T03:31:16;15.60;99.90
24645;DHT22;12780;45.502;9.146;2022-10-30T03:33:43;15.60;99.90
24645;DHT22;12780;45.502;9.146;2022-10-30T03:36:11;15.60;99.90
24645;DHT22;12780;45.502;9.146;2022-10-30T03:38:36;15.60;99.90
24645;DHT22;12780;45.502;9.146;2022-10-30T03:41:03;15.60;99.90
24645;DHT22;12780;45.502;9.146;2022-10-30T03:43:28;15.50;99.90
24645;DHT22;12780;45.502;9.146;2022-10-30T03:45:55;15.60;99.90
24645;DHT22;12780;45.502;9.146;2022-10-30T03:48:23;15.50;99.90
24645;DHT22;12780;45.502;9.146;2022-10-30T03:50:52;15.50;99.90
24645;DHT22;12780;45.502;9.146;2022-10-30T03:53:18;15.50;99.90
24645;DHT22;12780;45.502;9.146;2022-10-30T03:55:43;15.50;99.90
24645;DHT22;12780;45.502;9.146;2022-10-30T03:58:09;15.40;99.90
24645;DHT22;12780;45.502;9.146;2022-10-30T04:00:35;15.40;99.90
24645;DHT22;12780;45.502;9.146;2022-10-30T04:03:01;15.40;99.90
24645;DHT22;12780;45.502;9.146;2022-10-30T04:05:30;15.40;99.90
24645;DHT22;12780;45.502;9.146;2022-10-30T04:08:00;15.40;99.90
24645;DHT22;12780;45.502;9.146;2022-10-30T04:10:26;15.40;99.90
24645;DHT22;12780;45.502;9.146;2022-10-30T04:12:58;15.60;99.90
24645;DHT22;12780;45.502;9.146;2022-10-30T04:15:23;15.40;99.90
24645;DHT22;12780;45.502;9.146;2022-10-30T04:17:50;15.40;99.90
24645;DHT22;12780;45.502;9.146;2022-10-30T04:20:17;15.40;99.90
24645;DHT22;12780;45.502;9.146;2022-10-30T04:22:42;15.40;99.90
24645;DHT22;12780;45.502;9.146;2022-10-30T04:25:08;15.40;99.90
24645;DHT22;12780;45.502;9.146;2022-10-30T04:27:44;15.40;99.90
24645;DHT22;12780;45.502;9.146;2022-10-30T04:30:11;15.40;99.90
24645;DHT22;12780;45.502;9.146;2022-10-30T04:32:45;15.40;99.90
24645;DHT22;12780;45.502;9.146;2022-10-30T04:35:10;15.40;99.90
24645;DHT22;12780;45.502;9.146;2022-10-30T04:37:36;15.30;99.90
24645;DHT22;12780;45.502;9.146;2022-10-30T04:40:02;15.40;99.90
24645;DHT22;12780;45.502;9.146;2022-10-30T04:42:28;15.30;99.90
24645;DHT22;12780;45.502;9.146;2022-10-30T04:44:53;15.30;99.90
24645;DHT22;12780;45.502;9.146;2022-10-30T04:47:19;15.30;99.90
24645;DHT22;12780;45.502;9.146;2022-10-30T04:49:44;15.30;99.90
24645;DHT22;12780;45.502;9.146;2022-10-30T04:52:10;15.30;99.90
24645;DHT22;12780;45.502;9.146;2022-10-30T04:54:35;15.20;99.90
24645;DHT22;12780;45.502;9.146;2022-10-30T04:57:01;15.20;99.90
24645;DHT22;12780;45.502;9.146;2022-10-30T04:59:26;15.20;99.90
24645;DHT22;12780;45.502;9.146;2022-10-30T05:01:52;15.40;99.90
24645;DHT22;12780;45.502;9.146;2022-10-30T05:04:18;15.20;99.90
24645;DHT22;12780;45.502;9.146;2022-10-30T05:06:43;15.20;99.90
24645;DHT22;12780;45.502;9.146;2022-10-30T05:09:09;15.20;99.90
24645;DHT22;12780;45.502;9.146;2022-10-30T05:11:34;15.30;99.90
24645;DHT22;12780;45.502;9.146;2022-10-30T05:14:00;15.20;99.90
24645;DHT22;12780;45.502;9.146;2022-10-30T05:16:26;15.10;99.90
24645;DHT22;12780;45.502;9.146;2022-10-30T05:18:51;15.10;99.90
24645;DHT22;12780;45.502;9.146;2022-10-30T05:21:17;15.10;99.90
24645;DHT22;12780;45.502;9.146;2022-10-30T05:23:42;15.10;99.90
24645;DHT22;12780;45.502;9.146;2022-10-30T05:26:08;15.10;99.90
24645;DHT22;12780;45.502;9.146;2022-10-30T05:28:33;15.10;99.90
24645;DHT22;12780;45.502;9.146;2022-10-30T05:30:59;15.10;99.90
24645;DHT22;12780;45.502;9.146;2022-10-30T05:33:24;15.00;99.90
24645;DHT22;12780;45.502;9.146;2022-10-30T05:35:50;15.00;99.90
24645;DHT22;12780;45.502;9.146;2022-10-30T05:38:15;15.00;99.90
24645;DHT22;12780;45.502;9.146;2022-10-30T05:40:41;15.00;99.90
24645;DHT22;12780;45.502;9.146;2022-10-30T05:43:10;15.10;99.90
24645;DHT22;12780;45.502;9.146;2022-10-30T05:45:35;15.00;99.90
24645;DHT22;12780;45.502;9.146;2022-10-30T05:48:05;15.00;99.90
24645;DHT22;12780;45.502;9.146;2022-10-30T05:50:31;15.00;99.90
24645;DHT22;12780;45.502;9.146;2022-10-30T05:53:00;15.00;99.90
24645;DHT22;12780;45.502;9.146;2022-10-30T05:55:27;15.00;99.90
24645;DHT22;12780;45.502;9.146;2022-10-30T05:58:00;15.00;99.90
24645;DHT22;12780;45.502;9.146;2022-10-30T06:00:27;14.90;99.90
24645;DHT22;12780;45.502;9.146;2022-10-30T06:03:09;15.10;99.90
24645;DHT22;12780;45.502;9.146;2022-10-30T06:05:36;15.00;99.90
24645;DHT22;12780;45.502;9.146;2022-10-30T06:08:02;15.10;99.90
24645;DHT22;12780;45.502;9.146;2022-10-30T06:10:28;15.00;99.90
24645;DHT22;12780;45.502;9.146;2022-10-30T06:12:55;15.10;99.90
24645;DHT22;12780;45.502;9.146;2022-10-30T06:15:22;15.10;99.90
24645;DHT22;12780;45.502;9.146;2022-10-30T06:17:47;15.10;99.90
24645;DHT22;12780;45.502;9.146;2022-10-30T06:20:13;15.10;99.90
24645;DHT22;12780;45.502;9.146;2022-10-30T06:22:39;15.10;99.90
24645;DHT22;12780;45.502;9.146;2022-10-30T06:25:05;15.00;99.90
24645;DHT22;12780;45.502;9.146;2022-10-30T06:27:33;15.00;99.90
24645;DHT22;12780;45.502;9.146;2022-10-30T06:29:59;15.00;99.90
24645;DHT22;12780;45.502;9.146;2022-10-30T06:32:25;15.10;99.90
24645;DHT22;12780;45.502;9.146;2022-10-30T06:34:50;15.10;99.90
24645;DHT22;12780;45.502;9.146;2022-10-30T06:37:16;15.20;99.90
24645;DHT22;12780;45.502;9.146;2022-10-30T06:39:42;15.20;99.90
24645;DHT22;12780;45.502;9.146;2022-10-30T06:42:07;15.10;99.90
24645;DHT22;12780;45.502;9.146;2022-10-30T06:44:33;15.10;99.90
24645;DHT22;12780;45.502;9.146;2022-10-30T06:46:59;15.20;99.90
24645;DHT22;12780;45.502;9.146;2022-10-30T06:49:25;15.20;99.90
24645;DHT22;12780;45.502;9.146;2022-10-30T06:51:50;15.30;99.90
24645;DHT22;12780;45.502;9.146;2022-10-30T06:54:16;15.30;99.90
24645;DHT22;12780;45.502;9.146;2022-10-30T06:56:41;15.30;99.90
24645;DHT22;12780;45.502;9.146;2022-10-30T06:59:08;15.30;99.90
24645;DHT22;12780;45.502;9.146;2022-10-30T07:01:34;15.30;99.90
24645;DHT22;12780;45.502;9.146;2022-10-30T07:03:59;15.50;99.90
24645;DHT22;12780;45.502;9.146;2022-10-30T07:06:25;15.50;99.90
24645;DHT22;12780;45.502;9.146;2022-10-30T07:08:50;15.70;99.90
24645;DHT22;12780;45.502;9.146;2022-10-30T07:11:16;15.60;99.90
24645;DHT22;12780;45.502;9.146;2022-10-30T07:13:41;15.60;99.90
24645;DHT22;12780;45.502;9.146;2022-10-30T07:16:07;15.70;99.90
24645;DHT22;12780;45.502;9.146;2022-10-30T07:18:32;15.70;99.90
24645;DHT22;12780;45.502;9.146;2022-10-30T07:20:58;15.70;99.90
24645;DHT22;12780;45.502;9.146;2022-10-30T07:23:24;15.80;99.90
24645;DHT22;12780;45.502;9.146;2022-10-30T07:25:49;15.80;99.90
24645;DHT22;12780;45.502;9.146;2022-10-30T07:28:15;16.00;99.90
24645;DHT22;12780;45.502;9.146;2022-10-30T07:30:40;16.00;99.90
24645;DHT22;12780;45.502;9.146;2022-10-30T07:33:08;16.10;99.90
24645;DHT22;12780;45.502;9.146;2022-10-30T07:35:34;16.20;99.90
24645;DHT22;12780;45.502;9.146;2022-10-30T07:38:04;16.20;99.90
24645;DHT22;12780;45.502;9.146;2022-10-30T07:40:31;16.20;99.90
24645;DHT22;12780;45.502;9.146;2022-10-30T07:42:58;16.30;99.90
24645;DHT22;12780;45.502;9.146;2022-10-30T07:45:24;16.50;99.90
24645;DHT22;12780;45.502;9.146;2022-10-30T07:47:49;16.40;99.90
24645;DHT22;12780;45.502;9.146;2022-10-30T07:50:15;16.40;99.90
24645;DHT22;12780;45.502;9.146;2022-10-30T07:52:40;16.40;99.90
24645;DHT22;12780;45.502;9.146;2022-10-30T07:55:06;16.50;99.90
24645;DHT22;12780;45.502;9.146;2022-10-30T07:57:36;16.50;99.90
24645;DHT22;12780;45.502;9.146;2022-10-30T08:00:07;16.50;99.90
24645;DHT22;12780;45.502;9.146;2022-10-30T08:02:33;16.60;99.90
24645;DHT22;12780;45.502;9.146;2022-10-30T08:04:59;16.70;99.90
24645;DHT22;12780;45.502;9.146;2022-10-30T08:07:32;16.70;99.90
24645;DHT22;12780;45.502;9.146;2022-10-30T08:09:57;16.70;99.90
24645;DHT22;12780;45.502;9.146;2022-10-30T08:12:24;16.80;99.90
24645;DHT22;12780;45.502;9.146;2022-10-30T08:14:50;16.80;99.90
24645;DHT22;12780;45.502;9.146;2022-10-30T08:17:15;16.90;99.90
24645;DHT22;12780;45.502;9.146;2022-10-30T08:19:41;17.00;99.90
24645;DHT22;12780;45.502;9.146;2022-10-30T08:22:08;17.00;99.90
24645;DHT22;12780;45.502;9.146;2022-10-30T08:24:34;17.20;99.90
24645;DHT22;12780;45.502;9.146;2022-10-30T08:27:00;17.10;99.90
24645;DHT22;12780;45.502;9.146;2022-10-30T08:29:25;17.10;99.90
24645;DHT22;12780;45.502;9.146;2022-10-30T08:31:51;17.20;99.90
24645;DHT22;12780;45.502;9.146;2022-10-30T08:34:17;17.20;99.90
24645;DHT22;12780;45.502;9.146;2022-10-30T08:36:43;17.30;99.90
24645;DHT22;12780;45.502;9.146;2022-10-30T08:39:09;17.30;99.90
24645;DHT22;12780;45.502;9.146;2022-10-30T08:41:34;17.40;99.90
24645;DHT22;12780;45.502;9.146;2022-10-30T08:44:00;17.50;99.90
24645;DHT22;12780;45.502;9.146;2022-10-30T08:46:26;17.50;99.90
24645;DHT22;12780;45.502;9.146;2022-10-30T08:48:51;17.50;99.90
24645;DHT22;12780;45.502;9.146;2022-10-30T08:51:19;17.60;99.90
24645;DHT22;12780;45.502;9.146;2022-10-30T08:53:47;17.60;99.90
24645;DHT22;12780;45.502;9.146;2022-10-30T08:56:13;17.70;99.90
24645;DHT22;12780;45.502;9.146;2022-10-30T08:58:39;17.70;99.90
24645;DHT22;12780;45.502;9.146;2022-10-30T09:01:04;17.80;99.90
24645;DHT22;12780;45.502;9.146;2022-10-30T09:03:30;17.70;99.90
24645;DHT22;12780;45.502;9.146;2022-10-30T09:05:59;17.70;99.90
24645;DHT22;12780;45.502;9.146;2022-10-30T09:08:26;17.70;99.90
24645;DHT22;12780;45.502;9.146;2022-10-30T09:10:56;17.80;99.90
24645;DHT22;12780;45.502;9.146;2022-10-30T09:13:22;17.80;99.90
24645;DHT22;12780;45.502;9.146;2022-10-30T09:15:47;17.90;99.90
24645;DHT22;12780;45.502;9.146;2022-10-30T09:18:13;18.00;99.90
24645;DHT22;12780;45.502;9.146;2022-10-30T09:20:39;17.90;99.90
24645;DHT22;12780;45.502;9.146;2022-10-30T09:23:04;18.00;99.90
24645;DHT22;12780;45.502;9.146;2022-10-30T09:25:30;18.10;99.90
24645;DHT22;12780;45.502;9.146;2022-10-30T09:27:55;18.10;99.90
24645;DHT22;12780;45.502;9.146;2022-10-30T09:30:21;18.20;99.90
24645;DHT22;12780;45.502;9.146;2022-10-30T09:32:57;18.20;99.90
24645;DHT22;12780;45.502;9.146;2022-10-30T09:35:23;18.30;99.90
24645;DHT22;12780;45.502;9.146;2022-10-30T09:37:49;18.30;99.90
24645;DHT22;12780;45.502;9.146;2022-10-30T09:43:26;18.40;99.90
24645;DHT22;12780;45.502;9.146;2022-10-30T09:52:06;18.60;99.90
24645;DHT22;12780;45.502;9.146;2022-10-30T10:00:19;18.70;99.90
24645;DHT22;12780;45.502;9.146;2022-10-30T10:03:04;18.70;99.90
24645;DHT22;12780;45.502;9.146;2022-10-30T10:05:52;18.80;99.90
24645;DHT22;12780;45.502;9.146;2022-10-30T10:08:24;18.90;99.90
24645;DHT22;12780;45.502;9.146;2022-10-30T10:10:57;19.00;99.90
24645;DHT22;12780;45.502;9.146;2022-10-30T10:13:44;19.10;99.90
24645;DHT22;12780;45.502;9.146;2022-10-30T10:16:18;19.20;99.90
24645;DHT22;12780;45.502;9.146;2022-10-30T10:18:46;19.30;99.90
24645;DHT22;12780;45.502;9.146;2022-10-30T10:21:26;19.40;99.90
24645;DHT22;12780;45.502;9.146;2022-10-30T10:23:58;19.50;99.90
24645;DHT22;12780;45.502;9.146;2022-10-30T10:29:17;19.60;99.90
24645;DHT22;12780;45.502;9.146;2022-10-30T10:37:39;19.80;99.90
24645;DHT22;12780;45.502;9.146;2022-10-30T10:40:21;19.90;99.90
24645;DHT22;12780;45.502;9.146;2022-10-30T10:51:23;20.20;99.90
24645;DHT22;12780;45.502;9.146;2022-10-30T10:53:59;20.30;99.90
24645;DHT22;12780;45.502;9.146;2022-10-30T10:56:30;20.30;99.90
24645;DHT22;12780;45.502;9.146;2022-10-30T11:02:01;20.40;99.90
24645;DHT22;12780;45.502;9.146;2022-10-30T11:04:38;20.40;99.90
24645;DHT22;12780;45.502;9.146;2022-10-30T11:07:21;20.40;99.90
24645;DHT22;12780;45.502;9.146;2022-10-30T11:09:51;20.50;99.90
24645;DHT22;12780;45.502;9.146;2022-10-30T11:12:21;20.60;99.90
24645;DHT22;12780;45.502;9.146;2022-10-30T11:14:47;20.60;99.90
24645;DHT22;12780;45.502;9.146;2022-10-30T11:17:28;20.70;99.90
24645;DHT22;12780;45.502;9.146;2022-10-30T11:20:00;20.80;99.90
24645;DHT22;12780;45.502;9.146;2022-10-30T11:22:37;20.80;99.90
24645;DHT22;12780;45.502;9.146;2022-10-30T11:25:19;20.90;99.90
24645;DHT22;12780;45.502;9.146;2022-10-30T11:27:56;21.00;99.90
24645;DHT22;12780;45.502;9.146;2022-10-30T11:30:24;21.00;99.90
24645;DHT22;12780;45.502;9.146;2022-10-30T11:32:53;21.00;99.90
24645;DHT22;12780;45.502;9.146;2022-10-30T11:35:20;21.10;99.90
24645;DHT22;12780;45.502;9.146;2022-10-30T11:37:48;21.10;99.90
24645;DHT22;12780;45.502;9.146;2022-10-30T11:40:17;21.10;99.90
24645;DHT22;12780;45.502;9.146;2022-10-30T11:43:00;21.20;99.90
24645;DHT22;12780;45.502;9.146;2022-10-30T11:45:31;21.20;99.90
24645;DHT22;12780;45.502;9.146;2022-10-30T11:47:59;21.20;99.90
24645;DHT22;12780;45.502;9.146;2022-10-30T11:50:28;21.20;99.90
24645;DHT22;12780;45.502;9.146;2022-10-30T11:52:57;21.30;99.90
24645;DHT22;12780;45.502;9.146;2022-10-30T11:55:34;21.40;99.90
24645;DHT22;12780;45.502;9.146;2022-10-30T11:58:00;21.50;99.90
24645;DHT22;12780;45.502;9.146;2022-10-30T12:00:28;21.50;99.90
24645;DHT22;12780;45.502;9.146;2022-10-30T12:02:56;21.50;99.90
24645;DHT22;12780;45.502;9.146;2022-10-30T12:07:51;21.60;99.90
24645;DHT22;12780;45.502;9.146;2022-10-30T12:10:25;21.60;99.90
24645;DHT22;12780;45.502;9.146;2022-10-30T12:12:50;21.60;99.90
24645;DHT22;12780;45.502;9.146;2022-10-30T12:15:23;21.70;99.90
24645;DHT22;12780;45.502;9.146;2022-10-30T12:18:03;21.60;99.90
24645;DHT22;12780;45.502;9.146;2022-10-30T12:20:30;21.60;99.90
24645;DHT22;12780;45.502;9.146;2022-10-30T12:22:57;21.60;99.90
24645;DHT22;12780;45.502;9.146;2022-10-30T12:25:28;21.60;99.90
24645;DHT22;12780;45.502;9.146;2022-10-30T12:28:00;21.60;99.90
24645;DHT22;12780;45.502;9.146;2022-10-30T12:30:31;21.60;99.90
24645;DHT22;12780;45.502;9.146;2022-10-30T12:33:12;21.60;99.90
24645;DHT22;12780;45.502;9.146;2022-10-30T12:35:54;21.60;99.90
24645;DHT22;12780;45.502;9.146;2022-10-30T12:38:29;21.60;99.90
24645;DHT22;12780;45.502;9.146;2022-10-30T12:41:20;21.60;99.90
24645;DHT22;12780;45.502;9.146;2022-10-30T12:44:10;21.60;99.90
24645;DHT22;12780;45.502;9.146;2022-10-30T12:49:50;21.60;99.90
24645;DHT22;12780;45.502;9.146;2022-10-30T12:52:26;21.60;99.90
24645;DHT22;12780;45.502;9.146;2022-10-30T12:57:44;21.70;99.90
24645;DHT22;12780;45.502;9.146;2022-10-30T13:00:12;21.70;99.90
24645;DHT22;12780;45.502;9.146;2022-10-30T13:03:18;21.70;99.90
24645;DHT22;12780;45.502;9.146;2022-10-30T13:05:48;21.60;99.90
24645;DHT22;12780;45.502;9.146;2022-10-30T13:08:26;21.70;99.90
24645;DHT22;12780;45.502;9.146;2022-10-30T13:13:36;21.70;99.90
24645;DHT22;12780;45.502;9.146;2022-10-30T13:16:07;21.70;99.90
24645;DHT22;12780;45.502;9.146;2022-10-30T13:18:35;21.70;99.90
24645;DHT22;12780;45.502;9.146;2022-10-30T13:23:51;21.80;99.90
24645;DHT22;12780;45.502;9.146;2022-10-30T13:35:07;21.90;99.90
24645;DHT22;12780;45.502;9.146;2022-10-30T13:40:43;21.90;99.90
24645;DHT22;12780;45.502;9.146;2022-10-30T13:54:00;21.90;99.90
24645;DHT22;12780;45.502;9.146;2022-10-30T13:56:27;21.90;99.90
24645;DHT22;12780;45.502;9.146;2022-10-30T13:59:01;21.90;99.90
24645;DHT22;12780;45.502;9.146;2022-10-30T14:04:17;21.90;99.90
24645;DHT22;12780;45.502;9.146;2022-10-30T14:06:51;21.90;99.90
24645;DHT22;12780;45.502;9.146;2022-10-30T14:15:33;21.80;99.90
24645;DHT22;12780;45.502;9.146;2022-10-30T14:20:53;21.80;99.90
24645;DHT22;12780;45.502;9.146;2022-10-30T14:28:37;21.80;99.90
24645;DHT22;12780;45.502;9.146;2022-10-30T14:31:05;21.80;99.90
24645;DHT22;12780;45.502;9.146;2022-10-30T14:33:51;21.70;99.90
24645;DHT22;12780;45.502;9.146;2022-10-30T14:50:51;21.60;99.90
24645;DHT22;12780;45.502;9.146;2022-10-30T14:53:36;21.60;99.90
24645;DHT22;12780;45.502;9.146;2022-10-30T14:58:42;21.50;99.90
24645;DHT22;12780;45.502;9.146;2022-10-30T15:06:36;21.50;99.90
24645;DHT22;12780;45.502;9.146;2022-10-30T15:09:29;21.40;99.90
24645;DHT22;12780;45.502;9.146;2022-10-30T15:14:58;21.40;99.90
24645;DHT22;12780;45.502;9.146;2022-10-30T15:17:41;21.40;99.90
24645;DHT22;12780;45.502;9.146;2022-10-30T15:20:17;21.40;99.90
24645;DHT22;12780;45.502;9.146;2022-10-30T15:22:46;21.30;99.90
24645;DHT22;12780;45.502;9.146;2022-10-30T15:25:18;21.10;99.90
24645;DHT22;12780;45.502;9.146;2022-10-30T15:27:46;21.20;99.90
24645;DHT22;12780;45.502;9.146;2022-10-30T15:30:21;21.20;99.90
24645;DHT22;12780;45.502;9.146;2022-10-30T15:32:47;21.20;99.90
24645;DHT22;12780;45.502;9.146;2022-10-30T15:35:18;21.20;99.90
24645;DHT22;12780;45.502;9.146;2022-10-30T15:38:05;21.10;99.90
24645;DHT22;12780;45.502;9.146;2022-10-30T15:40:32;21.00;99.90
24645;DHT22;12780;45.502;9.146;2022-10-30T15:43:00;21.00;99.90
24645;DHT22;12780;45.502;9.146;2022-10-30T15:50:52;20.80;99.90
24645;DHT22;12780;45.502;9.146;2022-10-30T15:53:20;20.80;99.90
24645;DHT22;12780;45.502;9.146;2022-10-30T15:55:49;20.80;99.90
24645;DHT22;12780;45.502;9.146;2022-10-30T15:58:17;20.70;99.90
24645;DHT22;12780;45.502;9.146;2022-10-30T16:00:58;20.60;99.90
24645;DHT22;12780;45.502;9.146;2022-10-30T16:03:24;20.50;99.90
24645;DHT22;12780;45.502;9.146;2022-10-30T16:05:50;20.40;99.90
24645;DHT22;12780;45.502;9.146;2022-10-30T16:08:20;20.40;99.90
24645;DHT22;12780;45.502;9.146;2022-10-30T16:10:47;20.30;99.90
24645;DHT22;12780;45.502;9.146;2022-10-30T16:13:16;20.20;99.90
24645;DHT22;12780;45.502;9.146;2022-10-30T16:15:43;20.10;99.90
24645;DHT22;12780;45.502;9.146;2022-10-30T16:18:18;20.10;99.90
24645;DHT22;12780;45.502;9.146;2022-10-30T16:20:49;20.00;99.90
24645;DHT22;12780;45.502;9.146;2022-10-30T16:23:16;19.90;99.90
24645;DHT22;12780;45.502;9.146;2022-10-30T16:25:45;19.90;99.90
24645;DHT22;12780;45.502;9.146;2022-10-30T16:28:31;19.80;99.90
24645;DHT22;12780;45.502;9.146;2022-10-30T16:31:03;19.70;99.90
24645;DHT22;12780;45.502;9.146;2022-10-30T16:33:31;19.70;99.90
24645;DHT22;12780;45.502;9.146;2022-10-30T16:35:58;19.70;99.90
24645;DHT22;12780;45.502;9.146;2022-10-30T16:38:27;19.60;99.90
24645;DHT22;12780;45.502;9.146;2022-10-30T16:40:54;19.60;99.90
24645;DHT22;12780;45.502;9.146;2022-10-30T16:43:27;19.50;99.90
24645;DHT22;12780;45.502;9.146;2022-10-30T16:45:54;19.50;99.90
24645;DHT22;12780;45.502;9.146;2022-10-30T16:48:34;19.40;99.90
24645;DHT22;12780;45.502;9.146;2022-10-30T16:51:01;19.40;99.90
24645;DHT22;12780;45.502;9.146;2022-10-30T16:53:28;19.30;99.90
24645;DHT22;12780;45.502;9.146;2022-10-30T16:55:56;19.30;99.90
24645;DHT22;12780;45.502;9.146;2022-10-30T16:58:25;19.20;99.90
24645;DHT22;12780;45.502;9.146;2022-10-30T17:00:53;19.20;99.90
24645;DHT22;12780;45.502;9.146;2022-10-30T17:03:22;19.20;99.90
24645;DHT22;12780;45.502;9.146;2022-10-30T17:06:27;19.10;99.90
24645;DHT22;12780;45.502;9.146;2022-10-30T17:08:57;19.10;99.90
24645;DHT22;12780;45.502;9.146;2022-10-30T17:11:38;19.10;99.90
24645;DHT22;12780;45.502;9.146;2022-10-30T17:14:20;19.00;99.90
24645;DHT22;12780;45.502;9.146;2022-10-30T17:16:57;19.00;99.90
24645;DHT22;12780;45.502;9.146;2022-10-30T17:21:58;19.00;99.90
24645;DHT22;12780;45.502;9.146;2022-10-30T17:24:29;18.90;99.90
24645;DHT22;12780;45.502;9.146;2022-10-30T17:26:57;18.90;99.90
24645;DHT22;12780;45.502;9.146;2022-10-30T17:29:43;18.90;99.90
24645;DHT22;12780;45.502;9.146;2022-10-30T17:32:42;18.80;99.90
24645;DHT22;12780;45.502;9.146;2022-10-30T17:35:15;18.80;99.90
24645;DHT22;12780;45.502;9.146;2022-10-30T17:37:42;18.80;99.90
24645;DHT22;12780;45.502;9.146;2022-10-30T17:40:08;18.80;99.90
24645;DHT22;12780;45.502;9.146;2022-10-30T17:42:34;18.70;99.90
24645;DHT22;12780;45.502;9.146;2022-10-30T17:44:59;18.70;99.90
24645;DHT22;12780;45.502;9.146;2022-10-30T17:47:25;18.60;99.90
24645;DHT22;12780;45.502;9.146;2022-10-30T17:49:51;18.60;99.90
24645;DHT22;12780;45.502;9.146;2022-10-30T17:52:18;18.60;99.90
24645;DHT22;12780;45.502;9.146;2022-10-30T17:54:47;18.60;99.90
24645;DHT22;12780;45.502;9.146;2022-10-30T17:57:14;18.60;99.90
24645;DHT22;12780;45.502;9.146;2022-10-30T17:59:41;18.50;99.90
24645;DHT22;12780;45.502;9.146;2022-10-30T18:02:25;18.50;99.90
24645;DHT22;12780;45.502;9.146;2022-10-30T18:04:50;18.50;99.90
24645;DHT22;12780;45.502;9.146;2022-10-30T18:07:17;18.50;99.90
24645;DHT22;12780;45.502;9.146;2022-10-30T18:09:43;18.50;99.90